createdAt,value
2023-05-23T00:00:23.811Z,18.56
2023-05-23T00:01:26.720Z,18.56
2023-05-23T00:02:30.458Z,18.56
2023-05-23T00:03:34.495Z,18.53
2023-05-23T00:04:38.136Z,18.50
2023-05-23T00:05:41.178Z,18.49
2023-05-23T00:06:48.344Z,18.49
2023-05-23T00:07:51.339Z,18.47
2023-05-23T00:08:54.170Z,18.44
2023-05-23T00:09:57.037Z,18.37
2023-05-23T00:10:59.940Z,18.37
2023-05-23T00:12:03.267Z,18.36
2023-05-23T00:13:06.872Z,18.36
2023-05-23T00:14:09.996Z,18.36
2023-05-23T00:15:13.517Z,18.34
2023-05-23T00:16:16.377Z,18.30
2023-05-23T00:17:19.322Z,18.29
2023-05-23T00:18:22.268Z,18.30
2023-05-23T00:19:25.199Z,18.30
2023-05-23T00:20:28.089Z,18.29
2023-05-23T00:21:30.941Z,18.29
2023-05-23T00:22:33.888Z,18.29
2023-05-23T00:23:36.843Z,18.23
2023-05-23T00:24:39.694Z,18.19
2023-05-23T00:25:42.689Z,18.17
2023-05-23T00:26:48.681Z,18.17
2023-05-23T00:27:52.259Z,18.17
2023-05-23T00:28:57.570Z,18.17
2023-05-23T00:30:00.403Z,18.12
2023-05-23T00:31:03.284Z,18.10
2023-05-23T00:32:06.700Z,18.10
2023-05-23T00:33:10.204Z,18.09
2023-05-23T00:34:18.884Z,18.08
2023-05-23T00:35:22.572Z,18.08
2023-05-23T00:36:25.463Z,18.08
2023-05-23T00:37:28.332Z,18.06
2023-05-23T00:38:31.347Z,18.05
2023-05-23T00:39:34.301Z,18.04
2023-05-23T00:40:37.282Z,18.02
2023-05-23T00:41:40.229Z,17.99
2023-05-23T00:42:43.315Z,17.98
2023-05-23T00:43:46.410Z,17.94
2023-05-23T00:44:49.766Z,17.98
2023-05-23T00:45:53.099Z,17.95
2023-05-23T00:46:58.556Z,17.86
2023-05-23T00:48:02.465Z,17.85
2023-05-23T00:49:05.872Z,17.88
2023-05-23T00:50:10.998Z,17.89
2023-05-23T00:51:14.428Z,17.88
2023-05-23T00:52:18.372Z,17.86
2023-05-23T00:53:22.041Z,17.89
2023-05-23T00:54:34.794Z,17.86
2023-05-23T00:55:37.976Z,17.85
2023-05-23T00:56:41.222Z,17.81
2023-05-23T00:57:45.716Z,17.81
2023-05-23T00:58:48.965Z,17.79
2023-05-23T00:59:52.644Z,17.79
2023-05-23T01:00:57.025Z,17.78
2023-05-23T01:02:02.066Z,17.77
2023-05-23T01:03:06.377Z,17.79
2023-05-23T01:04:09.516Z,17.81
2023-05-23T01:05:15.803Z,17.78
2023-05-23T01:06:18.912Z,17.77
2023-05-23T01:07:22.752Z,17.74
2023-05-23T01:08:25.754Z,17.79
2023-05-23T01:09:30.533Z,17.78
2023-05-23T01:10:33.537Z,17.79
2023-05-23T01:11:56.061Z,17.74
2023-05-23T01:13:07.719Z,17.75
2023-05-23T01:14:20.014Z,17.78
2023-05-23T01:15:29.338Z,17.78
2023-05-23T01:16:32.296Z,17.74
2023-05-23T01:17:46.160Z,17.74
2023-05-23T01:19:17.881Z,17.74
2023-05-23T01:20:50.349Z,17.71
2023-05-23T01:21:56.314Z,17.68
2023-05-23T01:23:02.020Z,17.63
2023-05-23T01:24:07.522Z,17.57
2023-05-23T01:25:13.432Z,17.50
2023-05-23T01:26:40.874Z,17.51
2023-05-23T01:27:55.621Z,17.51
2023-05-23T01:29:11.376Z,17.53
2023-05-23T01:30:15.280Z,17.53
2023-05-23T01:31:19.805Z,17.51
2023-05-23T01:32:24.516Z,17.51
2023-05-23T01:33:29.787Z,17.53
2023-05-23T01:34:33.520Z,17.51
2023-05-23T01:35:37.094Z,17.50
2023-05-23T01:36:45.112Z,17.46
2023-05-23T01:37:48.482Z,17.51
2023-05-23T01:38:51.377Z,17.46
2023-05-23T01:39:54.247Z,17.47
2023-05-23T01:40:57.274Z,17.46
2023-05-23T01:42:00.268Z,17.47
2023-05-23T01:43:04.007Z,17.46
2023-05-23T01:44:07.354Z,17.46
2023-05-23T01:45:11.233Z,17.46
2023-05-23T01:46:14.890Z,17.44
2023-05-23T01:47:18.514Z,17.46
2023-05-23T01:48:22.801Z,17.46
2023-05-23T01:49:26.153Z,17.41
2023-05-23T01:50:30.025Z,17.37
2023-05-23T01:51:33.247Z,17.41
2023-05-23T01:52:37.117Z,17.40
2023-05-23T01:53:40.039Z,17.40
2023-05-23T01:54:45.057Z,17.38
2023-05-23T01:55:48.950Z,17.38
2023-05-23T01:56:52.249Z,17.41
2023-05-23T01:58:00.151Z,17.38
2023-05-23T01:59:03.883Z,17.38
2023-05-23T02:00:09.493Z,17.38
2023-05-23T02:01:12.850Z,17.34
2023-05-23T02:02:16.114Z,17.36
2023-05-23T02:03:19.670Z,17.34
2023-05-23T02:04:23.487Z,17.36
2023-05-23T02:05:27.171Z,17.30
2023-05-23T02:06:30.037Z,17.31
2023-05-23T02:07:32.896Z,17.30
2023-05-23T02:08:35.748Z,17.28
2023-05-23T02:09:38.685Z,17.28
2023-05-23T02:10:41.678Z,17.27
2023-05-23T02:11:44.566Z,17.27
2023-05-23T02:12:47.544Z,17.27
2023-05-23T02:13:50.487Z,17.27
2023-05-23T02:14:56.295Z,17.26
2023-05-23T02:15:59.189Z,17.28
2023-05-23T02:17:02.165Z,17.28
2023-05-23T02:18:05.635Z,17.24
2023-05-23T02:19:08.725Z,17.24
2023-05-23T02:20:12.080Z,17.20
2023-05-23T02:21:15.049Z,17.23
2023-05-23T02:22:18.198Z,17.23
2023-05-23T02:23:21.081Z,17.19
2023-05-23T02:24:24.026Z,17.23
2023-05-23T02:25:26.993Z,17.20
2023-05-23T02:26:29.902Z,17.15
2023-05-23T02:27:32.930Z,17.16
2023-05-23T02:28:35.831Z,17.15
2023-05-23T02:29:38.701Z,17.12
2023-05-23T02:30:41.690Z,17.15
2023-05-23T02:31:44.668Z,17.12
2023-05-23T02:32:47.771Z,17.13
2023-05-23T02:33:50.677Z,17.12
2023-05-23T02:34:55.122Z,17.12
2023-05-23T02:35:59.878Z,17.13
2023-05-23T02:37:03.102Z,17.10
2023-05-23T02:38:05.950Z,17.10
2023-05-23T02:39:08.853Z,17.10
2023-05-23T02:40:11.924Z,17.10
2023-05-23T02:41:14.762Z,17.05
2023-05-23T02:42:17.640Z,17.05
2023-05-23T02:43:21.375Z,17.02
2023-05-23T02:44:24.261Z,17.05
2023-05-23T02:45:27.192Z,17.00
2023-05-23T02:46:30.235Z,17.02
2023-05-23T02:47:33.251Z,17.02
2023-05-23T02:48:36.136Z,17.02
2023-05-23T02:49:39.186Z,17.02
2023-05-23T02:50:42.014Z,17.00
2023-05-23T02:51:45.007Z,17.02
2023-05-23T02:52:47.918Z,16.99
2023-05-23T02:53:50.780Z,17.00
2023-05-23T02:54:53.658Z,17.00
2023-05-23T02:55:56.586Z,16.99
2023-05-23T02:56:59.774Z,16.97
2023-05-23T02:58:02.635Z,16.95
2023-05-23T02:59:05.554Z,16.92
2023-05-23T03:00:09.218Z,16.95
2023-05-23T03:01:13.315Z,16.93
2023-05-23T03:02:16.355Z,16.90
2023-05-23T03:03:19.905Z,16.93
2023-05-23T03:04:22.871Z,16.92
2023-05-23T03:05:25.826Z,16.90
2023-05-23T03:06:28.954Z,16.86
2023-05-23T03:07:31.915Z,16.85
2023-05-23T03:08:34.906Z,16.86
2023-05-23T03:09:37.757Z,16.86
2023-05-23T03:10:40.733Z,16.89
2023-05-23T03:11:44.098Z,16.86
2023-05-23T03:12:48.399Z,16.83
2023-05-23T03:13:51.271Z,16.80
2023-05-23T03:14:54.144Z,16.82
2023-05-23T03:15:57.173Z,16.80
2023-05-23T03:17:00.059Z,16.80
2023-05-23T03:18:02.951Z,16.79
2023-05-23T03:19:06.054Z,16.80
2023-05-23T03:20:11.092Z,16.82
2023-05-23T03:21:13.952Z,16.76
2023-05-23T03:22:16.871Z,16.76
2023-05-23T03:23:19.850Z,16.75
2023-05-23T03:24:22.759Z,16.76
2023-05-23T03:25:25.680Z,16.76
2023-05-23T03:26:28.805Z,16.78
2023-05-23T03:27:31.742Z,16.79
2023-05-23T03:28:34.599Z,16.73
2023-05-23T03:29:37.481Z,16.69
2023-05-23T03:30:40.460Z,16.64
2023-05-23T03:31:43.339Z,16.61
2023-05-23T03:32:46.280Z,16.62
2023-05-23T03:33:49.166Z,16.67
2023-05-23T03:34:51.976Z,16.69
2023-05-23T03:35:55.034Z,16.69
2023-05-23T03:36:57.970Z,16.72
2023-05-23T03:38:00.843Z,16.75
2023-05-23T03:39:03.755Z,16.75
2023-05-23T03:40:08.623Z,16.71
2023-05-23T03:41:11.577Z,16.73
2023-05-23T03:42:14.517Z,16.73
2023-05-23T03:43:17.410Z,16.73
2023-05-23T03:44:20.292Z,16.72
2023-05-23T03:45:23.212Z,16.71
2023-05-23T03:46:26.093Z,16.71
2023-05-23T03:47:29.514Z,16.69
2023-05-23T03:48:32.521Z,16.69
2023-05-23T03:49:35.420Z,16.73
2023-05-23T03:50:38.385Z,16.72
2023-05-23T03:51:41.209Z,16.72
2023-05-23T03:52:44.309Z,16.73
2023-05-23T03:53:47.280Z,16.73
2023-05-23T03:54:50.177Z,16.71
2023-05-23T03:55:55.328Z,16.73
2023-05-23T03:56:58.324Z,16.73
2023-05-23T03:58:01.655Z,16.75
2023-05-23T03:59:04.574Z,16.75
2023-05-23T04:00:08.101Z,16.76
2023-05-23T04:01:11.092Z,16.76
2023-05-23T04:02:14.025Z,16.72
2023-05-23T04:03:18.940Z,16.75
2023-05-23T04:04:26.486Z,16.75
2023-05-23T04:05:29.522Z,16.80
2023-05-23T04:06:32.638Z,16.80
2023-05-23T04:07:38.240Z,16.80
2023-05-23T04:08:43.168Z,16.83
2023-05-23T04:09:46.171Z,16.83
2023-05-23T04:10:49.608Z,16.85
2023-05-23T04:11:53.282Z,16.83
2023-05-23T04:12:56.189Z,16.82
2023-05-23T04:13:59.654Z,16.82
2023-05-23T04:15:02.580Z,16.85
2023-05-23T04:16:06.997Z,16.88
2023-05-23T04:17:10.407Z,16.89
2023-05-23T04:18:13.342Z,16.90
2023-05-23T04:19:16.413Z,16.92
2023-05-23T04:20:19.285Z,16.95
2023-05-23T04:21:22.233Z,16.96
2023-05-23T04:22:25.089Z,16.96
2023-05-23T04:23:28.017Z,16.93
2023-05-23T04:24:30.864Z,16.99
2023-05-23T04:25:33.764Z,16.97
2023-05-23T04:26:37.754Z,17.00
2023-05-23T04:27:43.492Z,17.00
2023-05-23T04:28:47.657Z,17.02
2023-05-23T04:29:50.598Z,17.07
2023-05-23T04:30:54.873Z,17.02
2023-05-23T04:31:57.821Z,17.03
2023-05-23T04:33:01.417Z,17.05
2023-05-23T04:34:05.079Z,17.06
2023-05-23T04:35:08.529Z,17.10
2023-05-23T04:36:11.466Z,17.10
2023-05-23T04:37:15.582Z,17.12
2023-05-23T04:38:18.462Z,17.16
2023-05-23T04:39:22.220Z,17.19
2023-05-23T04:40:25.668Z,17.22
2023-05-23T04:41:28.586Z,17.24
2023-05-23T04:42:31.661Z,17.24
2023-05-23T04:43:38.574Z,17.28
2023-05-23T04:44:41.460Z,17.30
2023-05-23T04:45:45.405Z,17.31
2023-05-23T04:46:48.463Z,17.36
2023-05-23T04:47:51.453Z,17.41
2023-05-23T04:48:56.231Z,17.43
2023-05-23T04:49:59.183Z,17.48
2023-05-23T04:51:03.393Z,17.53
2023-05-23T04:52:06.511Z,17.55
2023-05-23T04:53:09.405Z,17.55
2023-05-23T04:54:12.542Z,17.63
2023-05-23T04:55:15.636Z,17.65
2023-05-23T04:56:29.527Z,17.68
2023-05-23T04:57:32.453Z,17.74
2023-05-23T04:58:35.385Z,17.74
2023-05-23T04:59:39.539Z,17.79
2023-05-23T05:00:42.818Z,17.84
2023-05-23T05:01:48.208Z,17.86
2023-05-23T05:02:51.307Z,17.89
2023-05-23T05:03:54.348Z,17.91
2023-05-23T05:04:57.275Z,17.95
2023-05-23T05:06:00.159Z,17.96
2023-05-23T05:07:05.439Z,17.99
2023-05-23T05:08:09.053Z,18.05
2023-05-23T05:09:11.974Z,18.09
2023-05-23T05:10:18.119Z,18.10
2023-05-23T05:11:20.980Z,18.15
2023-05-23T05:12:23.963Z,18.17
2023-05-23T05:13:27.020Z,18.23
2023-05-23T05:14:29.988Z,18.26
2023-05-23T05:15:33.718Z,18.29
2023-05-23T05:16:37.588Z,18.34
2023-05-23T05:17:41.276Z,18.37
2023-05-23T05:18:44.201Z,18.44
2023-05-23T05:19:47.688Z,18.49
2023-05-23T05:20:50.597Z,18.57
2023-05-23T05:21:53.813Z,18.61
2023-05-23T05:23:00.275Z,18.65
2023-05-23T05:24:03.141Z,18.67
2023-05-23T05:25:07.879Z,18.74
2023-05-23T05:26:11.157Z,18.77
2023-05-23T05:27:14.099Z,18.81
2023-05-23T05:28:16.987Z,18.81
2023-05-23T05:29:19.889Z,18.85
2023-05-23T05:30:22.850Z,18.88
2023-05-23T05:31:25.824Z,18.95
2023-05-23T05:32:30.391Z,18.95
2023-05-23T05:33:37.246Z,19.01
2023-05-23T05:34:40.136Z,19.04
2023-05-23T05:35:43.056Z,19.10
2023-05-23T05:36:49.457Z,19.14
2023-05-23T05:37:52.840Z,19.16
2023-05-23T05:38:55.696Z,19.16
2023-05-23T05:39:58.656Z,19.19
2023-05-23T05:41:01.550Z,19.23
2023-05-23T05:42:05.229Z,19.25
2023-05-23T05:43:08.212Z,19.31
2023-05-23T05:44:11.512Z,19.31
2023-05-23T05:45:14.518Z,19.32
2023-05-23T05:46:17.599Z,19.35
2023-05-23T05:47:20.529Z,19.39
2023-05-23T05:48:23.389Z,19.42
2023-05-23T05:49:26.269Z,19.48
2023-05-23T05:50:29.201Z,19.52
2023-05-23T05:51:32.907Z,19.56
2023-05-23T05:52:39.787Z,19.60
2023-05-23T05:53:42.670Z,19.63
2023-05-23T05:54:45.572Z,19.67
2023-05-23T05:55:48.452Z,19.69
2023-05-23T05:56:51.339Z,19.73
2023-05-23T05:57:54.227Z,19.77
2023-05-23T05:58:57.148Z,19.81
2023-05-23T06:00:00.263Z,19.86
2023-05-23T06:01:03.179Z,19.87
2023-05-23T06:02:06.357Z,19.91
2023-05-23T06:03:13.161Z,20.00
2023-05-23T06:04:16.197Z,20.00
2023-05-23T06:05:19.300Z,20.04
2023-05-23T06:06:22.188Z,20.08
2023-05-23T06:07:25.057Z,20.13
2023-05-23T06:08:28.189Z,20.13
2023-05-23T06:09:31.173Z,20.17
2023-05-23T06:10:34.269Z,20.20
2023-05-23T06:11:41.161Z,20.25
2023-05-23T06:12:44.418Z,20.29
2023-05-23T06:13:47.492Z,20.34
2023-05-23T06:14:50.443Z,20.35
2023-05-23T06:15:53.919Z,20.38
2023-05-23T06:16:56.868Z,20.44
2023-05-23T06:17:59.766Z,20.49
2023-05-23T06:19:02.766Z,20.53
2023-05-23T06:20:06.474Z,20.59
2023-05-23T06:21:09.516Z,20.64
2023-05-23T06:22:12.405Z,20.71
2023-05-23T06:23:15.444Z,20.69
2023-05-23T06:24:18.326Z,20.73
2023-05-23T06:25:21.290Z,20.75
2023-05-23T06:26:24.320Z,20.82
2023-05-23T06:27:27.128Z,20.83
2023-05-23T06:28:30.073Z,20.92
2023-05-23T06:29:33.062Z,20.99
2023-05-23T06:30:37.724Z,21.02
2023-05-23T06:31:40.708Z,21.08
2023-05-23T06:32:43.735Z,21.13
2023-05-23T06:33:46.632Z,21.20
2023-05-23T06:34:49.554Z,21.24
2023-05-23T06:35:52.544Z,21.33
2023-05-23T06:36:55.916Z,21.37
2023-05-23T06:37:58.841Z,21.45
2023-05-23T06:39:01.700Z,21.51
2023-05-23T06:40:04.857Z,21.54
2023-05-23T06:41:08.478Z,21.57
2023-05-23T06:42:11.451Z,21.62
2023-05-23T06:43:14.315Z,21.66
2023-05-23T06:44:17.204Z,21.71
2023-05-23T06:45:20.212Z,21.72
2023-05-23T06:46:23.238Z,21.79
2023-05-23T06:47:26.426Z,21.79
2023-05-23T06:48:29.381Z,21.91
2023-05-23T06:49:32.362Z,21.95
2023-05-23T06:50:35.303Z,22.03
2023-05-23T06:51:38.235Z,22.10
2023-05-23T06:52:41.254Z,22.17
2023-05-23T06:53:44.513Z,22.22
2023-05-23T06:54:47.400Z,22.29
2023-05-23T06:55:50.317Z,22.30
2023-05-23T06:56:53.239Z,22.35
2023-05-23T06:57:56.080Z,22.39
2023-05-23T06:58:59.276Z,22.47
2023-05-23T07:00:02.276Z,22.54
2023-05-23T07:01:05.270Z,22.59
2023-05-23T07:02:08.267Z,22.65
2023-05-23T07:03:11.136Z,22.71
2023-05-23T07:04:14.203Z,22.75
2023-05-23T07:05:17.699Z,22.80
2023-05-23T07:06:20.757Z,22.87
2023-05-23T07:07:23.674Z,22.92
2023-05-23T07:08:26.719Z,22.98
2023-05-23T07:09:29.587Z,23.04
2023-05-23T07:10:32.580Z,23.08
2023-05-23T07:11:36.668Z,23.05
2023-05-23T07:12:39.617Z,23.09
2023-05-23T07:13:42.684Z,23.11
2023-05-23T07:14:45.637Z,23.18
2023-05-23T07:15:48.666Z,23.21
2023-05-23T07:16:51.533Z,23.26
2023-05-23T07:17:54.474Z,23.29
2023-05-23T07:18:57.496Z,23.32
2023-05-23T07:20:00.457Z,23.35
2023-05-23T07:21:13.042Z,23.39
2023-05-23T07:22:16.060Z,23.41
2023-05-23T07:23:18.935Z,23.43
2023-05-23T07:24:23.322Z,23.48
2023-05-23T07:25:29.303Z,23.52
2023-05-23T07:26:32.224Z,23.56
2023-05-23T07:27:35.277Z,23.60
2023-05-23T07:28:38.909Z,23.66
2023-05-23T07:29:42.492Z,23.73
2023-05-23T07:30:45.418Z,23.81
2023-05-23T07:31:48.636Z,23.87
2023-05-23T07:32:53.725Z,23.96
2023-05-23T07:34:16.824Z,23.98
2023-05-23T07:35:25.297Z,24.03
2023-05-23T07:36:35.981Z,24.13
2023-05-23T07:37:39.036Z,24.14
2023-05-23T07:38:41.953Z,24.21
2023-05-23T07:39:44.840Z,24.22
2023-05-23T07:40:55.588Z,24.24
2023-05-23T07:42:06.077Z,24.25
2023-05-23T07:43:08.982Z,24.31
2023-05-23T07:44:12.323Z,24.29
2023-05-23T07:45:15.807Z,24.37
2023-05-23T07:46:18.763Z,24.37
2023-05-23T07:47:21.779Z,24.42
2023-05-23T07:48:24.790Z,24.48
2023-05-23T07:49:28.028Z,24.52
2023-05-23T07:50:30.967Z,24.55
2023-05-23T07:51:34.044Z,24.62
2023-05-23T07:52:36.999Z,24.65
2023-05-23T07:53:41.242Z,24.66
2023-05-23T07:54:44.935Z,24.68
2023-05-23T07:55:47.817Z,24.71
2023-05-23T07:56:50.732Z,24.73
2023-05-23T07:57:56.276Z,24.75
2023-05-23T07:58:59.126Z,24.80
2023-05-23T08:00:02.174Z,24.89
2023-05-23T08:01:05.185Z,25.00
2023-05-23T08:02:08.498Z,25.03
2023-05-23T08:03:11.641Z,25.10
2023-05-23T08:04:14.679Z,25.17
2023-05-23T08:05:17.713Z,25.23
2023-05-23T08:06:20.670Z,25.30
2023-05-23T08:07:23.653Z,25.35
2023-05-23T08:08:26.589Z,25.41
2023-05-23T08:09:29.450Z,25.45
2023-05-23T08:10:32.362Z,25.54
2023-05-23T08:11:35.252Z,25.57
2023-05-23T08:12:38.269Z,25.60
2023-05-23T08:13:41.167Z,25.65
2023-05-23T08:14:51.245Z,25.68
2023-05-23T08:15:55.780Z,25.71
2023-05-23T08:16:59.105Z,25.77
2023-05-23T08:18:02.495Z,25.77
2023-05-23T08:19:05.464Z,25.80
2023-05-23T08:20:09.495Z,25.85
2023-05-23T08:21:12.362Z,25.86
2023-05-23T08:22:16.433Z,25.86
2023-05-23T08:23:19.434Z,25.93
2023-05-23T08:24:22.871Z,26.01
2023-05-23T08:25:26.361Z,26.06
2023-05-23T08:26:35.933Z,26.09
2023-05-23T08:27:39.156Z,26.08
2023-05-23T08:28:42.029Z,26.10
2023-05-23T08:29:45.604Z,26.09
2023-05-23T08:30:48.680Z,26.15
2023-05-23T08:31:51.759Z,26.18
2023-05-23T08:32:55.617Z,26.16
2023-05-23T08:33:59.164Z,26.22
2023-05-23T08:35:02.079Z,26.23
2023-05-23T08:36:05.071Z,26.29
2023-05-23T08:37:08.241Z,26.36
2023-05-23T08:38:11.197Z,26.41
2023-05-23T08:39:14.490Z,26.50
2023-05-23T08:40:22.610Z,26.54
2023-05-23T08:41:26.443Z,26.61
2023-05-23T08:42:29.389Z,26.65
2023-05-23T08:43:32.368Z,26.67
2023-05-23T08:44:35.221Z,26.67
2023-05-23T08:45:38.658Z,26.74
2023-05-23T08:46:50.660Z,26.71
2023-05-23T08:47:53.986Z,26.68
2023-05-23T08:48:57.690Z,26.74
2023-05-23T08:50:03.237Z,26.74
2023-05-23T08:51:06.530Z,26.81
2023-05-23T08:52:14.795Z,26.88
2023-05-23T08:53:22.178Z,26.92
2023-05-23T08:54:25.866Z,26.97
2023-05-23T08:55:32.165Z,26.99
2023-05-23T08:56:36.381Z,27.04
2023-05-23T08:57:40.612Z,27.09
2023-05-23T08:58:44.689Z,27.15
2023-05-23T08:59:48.806Z,27.19
2023-05-23T09:00:55.043Z,27.22
2023-05-23T09:01:58.583Z,27.31
2023-05-23T09:03:01.680Z,27.35
2023-05-23T09:04:08.269Z,27.42
2023-05-23T09:05:11.217Z,27.43
2023-05-23T09:06:14.371Z,27.45
2023-05-23T09:07:19.908Z,27.46
2023-05-23T09:08:23.586Z,27.53
2023-05-23T09:09:26.819Z,27.56
2023-05-23T09:10:31.181Z,27.55
2023-05-23T09:11:37.137Z,27.55
2023-05-23T09:12:40.157Z,27.55
2023-05-23T09:13:43.189Z,27.56
2023-05-23T09:14:47.400Z,27.62
2023-05-23T09:16:09.662Z,27.67
2023-05-23T09:17:18.061Z,27.71
2023-05-23T09:18:20.984Z,27.79
2023-05-23T09:19:23.919Z,27.83
2023-05-23T09:20:26.842Z,27.87
2023-05-23T09:21:33.211Z,27.94
2023-05-23T09:22:36.101Z,27.98
2023-05-23T09:23:41.818Z,28.01
2023-05-23T09:24:45.669Z,28.03
2023-05-23T09:25:48.888Z,28.01
2023-05-23T09:26:51.839Z,28.00
2023-05-23T09:27:56.262Z,27.98
2023-05-23T09:29:02.704Z,28.01
2023-05-23T09:30:11.359Z,28.07
2023-05-23T09:31:14.379Z,28.08
2023-05-23T09:32:18.550Z,28.05
2023-05-23T09:33:21.476Z,28.07
2023-05-23T09:34:24.276Z,28.14
2023-05-23T09:35:29.894Z,28.18
2023-05-23T09:36:35.053Z,28.24
2023-05-23T09:37:42.127Z,28.33
2023-05-23T09:38:48.294Z,28.37
2023-05-23T09:39:51.917Z,28.40
2023-05-23T09:40:57.693Z,28.47
2023-05-23T09:42:02.429Z,28.45
2023-05-23T09:43:06.738Z,28.51
2023-05-23T09:44:10.863Z,28.48
2023-05-23T09:45:18.199Z,28.49
2023-05-23T09:46:22.597Z,28.51
2023-05-23T09:47:25.660Z,28.51
2023-05-23T09:48:34.764Z,28.51
2023-05-23T09:49:40.640Z,28.54
2023-05-23T09:50:47.076Z,28.58
2023-05-23T09:52:07.864Z,28.62
2023-05-23T09:53:10.765Z,28.63
2023-05-23T09:54:13.944Z,28.63
2023-05-23T09:55:16.902Z,28.65
2023-05-23T09:56:20.827Z,28.68
2023-05-23T09:57:24.886Z,28.76
2023-05-23T09:58:30.344Z,28.86
2023-05-23T09:59:36.471Z,28.93
2023-05-23T10:00:40.092Z,28.95
2023-05-23T10:01:48.540Z,29.00
2023-05-23T10:03:02.855Z,29.06
2023-05-23T10:04:07.194Z,29.10
2023-05-23T10:05:12.325Z,29.14
2023-05-23T10:06:30.719Z,29.19
2023-05-23T10:07:35.228Z,29.24
2023-05-23T10:08:44.504Z,29.30
2023-05-23T10:09:58.769Z,29.34
2023-05-23T10:11:14.624Z,29.38
2023-05-23T10:12:41.753Z,29.46
2023-05-23T10:13:46.533Z,29.46
2023-05-23T10:14:56.374Z,29.48
2023-05-23T10:16:23.313Z,29.47
2023-05-23T10:17:39.345Z,29.41
2023-05-23T10:18:46.288Z,29.35
2023-05-23T10:20:09.572Z,29.30
2023-05-23T10:21:22.235Z,29.16
2023-05-23T10:22:26.415Z,29.10
2023-05-23T10:23:30.573Z,29.03
2023-05-23T10:24:35.097Z,28.92
2023-05-23T10:25:39.181Z,28.86
2023-05-23T10:26:42.490Z,28.83
2023-05-23T10:27:46.092Z,28.86
2023-05-23T10:28:51.824Z,28.86
2023-05-23T10:29:54.894Z,28.86
2023-05-23T10:30:58.809Z,28.90
2023-05-23T10:32:04.149Z,28.98
2023-05-23T10:33:08.300Z,29.04
2023-05-23T10:34:38.545Z,29.14
2023-05-23T10:35:44.722Z,29.14
2023-05-23T10:37:00.805Z,29.20
2023-05-23T10:38:03.613Z,29.26
2023-05-23T10:39:21.374Z,29.30
2023-05-23T10:40:56.816Z,29.40
2023-05-23T10:42:21.892Z,29.38
2023-05-23T10:43:34.360Z,29.43
2023-05-23T10:44:38.018Z,29.48
2023-05-23T10:45:44.812Z,29.50
2023-05-23T10:46:59.024Z,29.54
2023-05-23T10:48:02.461Z,29.58
2023-05-23T10:49:10.022Z,29.64
2023-05-23T10:50:18.464Z,29.69
2023-05-23T10:51:23.982Z,29.75
2023-05-23T10:52:30.440Z,29.79
2023-05-23T10:53:36.305Z,29.86
2023-05-23T10:54:51.666Z,29.91
2023-05-23T10:55:57.875Z,29.93
2023-05-23T10:57:07.313Z,29.95
2023-05-23T10:58:18.631Z,30.01
2023-05-23T10:59:29.213Z,30.06
2023-05-23T11:00:33.772Z,30.12
2023-05-23T11:01:40.762Z,30.13
2023-05-23T11:03:00.997Z,30.15
2023-05-23T11:04:08.494Z,30.12
2023-05-23T11:05:17.710Z,30.06
2023-05-23T11:06:44.159Z,30.04
2023-05-23T11:07:47.398Z,30.09
2023-05-23T11:08:50.250Z,30.13
2023-05-23T11:10:19.466Z,30.18
2023-05-23T11:11:23.250Z,30.22
2023-05-23T11:12:46.137Z,30.23
2023-05-23T11:13:55.038Z,30.22
2023-05-23T11:14:58.003Z,30.22
2023-05-23T11:16:00.984Z,30.22
2023-05-23T11:17:20.934Z,30.19
2023-05-23T11:18:29.561Z,30.26
2023-05-23T11:19:32.533Z,30.29
2023-05-23T11:20:39.380Z,30.26
2023-05-23T11:21:43.099Z,30.22
2023-05-23T11:22:57.008Z,30.16
2023-05-23T11:23:59.924Z,30.18
2023-05-23T11:25:07.790Z,30.18
2023-05-23T11:26:33.395Z,30.13
2023-05-23T11:27:47.296Z,30.20
2023-05-23T11:29:00.502Z,30.16
2023-05-23T11:30:16.905Z,30.20
2023-05-23T11:31:20.094Z,30.23
2023-05-23T11:32:23.196Z,30.22
2023-05-23T11:33:26.342Z,30.23
2023-05-23T11:34:29.299Z,30.26
2023-05-23T11:35:32.370Z,30.32
2023-05-23T11:36:36.159Z,30.36
2023-05-23T11:37:42.433Z,30.36
2023-05-23T11:38:45.653Z,30.37
2023-05-23T11:39:48.578Z,30.40
2023-05-23T11:40:51.542Z,30.32
2023-05-23T11:42:04.596Z,30.26
2023-05-23T11:43:09.238Z,30.29
2023-05-23T11:44:15.391Z,30.32
2023-05-23T11:45:21.164Z,30.35
2023-05-23T11:46:24.088Z,30.36
2023-05-23T11:47:27.385Z,30.39
2023-05-23T11:48:30.273Z,30.43
2023-05-23T11:49:35.275Z,30.41
2023-05-23T11:50:54.921Z,30.43
2023-05-23T11:52:03.905Z,30.46
2023-05-23T11:53:06.964Z,30.46
2023-05-23T11:54:10.047Z,30.55
2023-05-23T11:55:12.953Z,30.55
2023-05-23T11:56:17.705Z,30.56
2023-05-23T11:57:20.702Z,30.55
2023-05-23T11:58:27.599Z,30.59
2023-05-23T11:59:30.941Z,30.63
2023-05-23T12:00:33.824Z,30.59
2023-05-23T12:01:38.673Z,30.64
2023-05-23T12:02:42.862Z,30.67
2023-05-23T12:03:51.255Z,30.68
2023-05-23T12:04:54.381Z,30.68
2023-05-23T12:05:57.842Z,30.70
2023-05-23T12:07:00.704Z,30.68
2023-05-23T12:08:04.636Z,30.70
2023-05-23T12:09:08.529Z,30.64
2023-05-23T12:10:12.396Z,30.64
2023-05-23T12:11:15.710Z,30.67
2023-05-23T12:12:18.788Z,30.61
2023-05-23T12:13:25.189Z,30.63
2023-05-23T12:14:30.421Z,30.68
2023-05-23T12:15:33.344Z,30.64
2023-05-23T12:16:37.803Z,30.66
2023-05-23T12:17:49.429Z,30.70
2023-05-23T12:18:54.649Z,30.68
2023-05-23T12:19:57.635Z,30.73
2023-05-23T12:21:04.566Z,30.74
2023-05-23T12:22:11.496Z,30.76
2023-05-23T12:23:24.496Z,30.77
2023-05-23T12:24:27.394Z,30.74
2023-05-23T12:25:30.320Z,30.70
2023-05-23T12:26:33.236Z,30.60
2023-05-23T12:27:38.440Z,30.55
2023-05-23T12:28:48.949Z,30.46
2023-05-23T12:29:55.716Z,30.41
2023-05-23T12:30:58.827Z,30.40
2023-05-23T12:32:03.255Z,30.37
2023-05-23T12:33:09.798Z,30.33
2023-05-23T12:34:13.706Z,30.33
2023-05-23T12:35:17.416Z,30.39
2023-05-23T12:36:26.066Z,30.40
2023-05-23T12:37:29.040Z,30.44
2023-05-23T12:38:39.074Z,30.40
2023-05-23T12:39:45.493Z,30.41
2023-05-23T12:40:48.456Z,30.44
2023-05-23T12:41:51.369Z,30.44
2023-05-23T12:42:56.422Z,30.46
2023-05-23T12:43:59.408Z,30.47
2023-05-23T12:45:02.389Z,30.46
2023-05-23T12:46:05.358Z,30.46
2023-05-23T12:47:08.377Z,30.46
2023-05-23T12:48:11.328Z,30.48
2023-05-23T12:49:14.301Z,30.48
2023-05-23T12:50:17.282Z,30.53
2023-05-23T12:51:20.869Z,30.57
2023-05-23T12:52:23.795Z,30.59
2023-05-23T12:53:29.228Z,30.61
2023-05-23T12:54:32.174Z,30.59
2023-05-23T12:55:35.072Z,30.47
2023-05-23T12:56:37.891Z,30.47
2023-05-23T12:57:41.025Z,30.48
2023-05-23T12:58:44.850Z,30.50
2023-05-23T12:59:47.768Z,30.53
2023-05-23T13:00:50.862Z,30.59
2023-05-23T13:01:53.871Z,30.60
2023-05-23T13:02:56.958Z,30.57
2023-05-23T13:03:59.825Z,30.59
2023-05-23T13:05:02.783Z,30.60
2023-05-23T13:06:05.920Z,30.60
2023-05-23T13:07:08.748Z,30.63
2023-05-23T13:08:13.577Z,30.64
2023-05-23T13:09:16.510Z,30.67
2023-05-23T13:10:19.591Z,30.70
2023-05-23T13:11:23.910Z,30.74
2023-05-23T13:12:26.853Z,30.76
2023-05-23T13:13:29.822Z,30.74
2023-05-23T13:14:33.032Z,30.71
2023-05-23T13:15:35.893Z,30.70
2023-05-23T13:16:40.443Z,30.68
2023-05-23T13:17:47.874Z,30.68
2023-05-23T13:18:53.527Z,30.71
2023-05-23T13:19:56.445Z,30.66
2023-05-23T13:20:59.314Z,30.67
2023-05-23T13:22:02.665Z,30.64
2023-05-23T13:23:05.645Z,30.70
2023-05-23T13:24:10.134Z,30.67
2023-05-23T13:25:13.520Z,30.68
2023-05-23T13:26:16.693Z,30.74
2023-05-23T13:27:19.804Z,30.73
2023-05-23T13:28:22.718Z,30.73
2023-05-23T13:29:25.585Z,30.68
2023-05-23T13:30:28.909Z,30.63
2023-05-23T13:31:31.976Z,30.63
2023-05-23T13:32:34.904Z,30.60
2023-05-23T13:33:38.627Z,30.59
2023-05-23T13:34:41.510Z,30.64
2023-05-23T13:35:45.280Z,30.61
2023-05-23T13:36:48.145Z,30.59
2023-05-23T13:37:51.059Z,30.63
2023-05-23T13:38:53.908Z,30.66
2023-05-23T13:39:57.057Z,30.67
2023-05-23T13:41:00.033Z,30.70
2023-05-23T13:42:02.909Z,30.67
2023-05-23T13:43:06.122Z,30.67
2023-05-23T13:44:09.178Z,30.66
2023-05-23T13:45:12.410Z,30.67
2023-05-23T13:46:15.666Z,30.64
2023-05-23T13:47:18.601Z,30.64
2023-05-23T13:48:21.523Z,30.60
2023-05-23T13:49:24.394Z,30.60
2023-05-23T13:50:27.486Z,30.60
2023-05-23T13:51:30.435Z,30.63
2023-05-23T13:52:33.409Z,30.57
2023-05-23T13:53:36.956Z,30.57